Time;durP1;ratioP1;P1;durP2;ratioP2;P2;SDS_P1;SDS_P2;PMS_P1;PMS_P2;Temp;Humidity;BMP_temperature;BMP_pressure;BME280_temperature;BME280_humidity;BME280_pressure;Samples;Min_cycle;Max_cycle;Signal;HPM_P1;HPM_P2
2023/06/26 00:00:20;;;;;;;9.23;6.95;;;25.50;93.40;;;;;;4960800;28;20542;-50
2023/06/26 00:02:46;;;;;;;9.07;7.65;;;25.50;93.40;;;;;;4954719;28;20138;-47
2023/06/26 00:05:13;;;;;;;8.68;7.65;;;25.40;93.40;;;;;;4955102;28;20043;-47
2023/06/26 00:07:39;;;;;;;10.43;8.02;;;25.40;93.60;;;;;;4954969;28;20042;-48
2023/06/26 00:10:06;;;;;;;12.23;8.07;;;25.30;93.70;;;;;;4954433;28;21306;-48
2023/06/26 00:12:32;;;;;;;13.07;7.68;;;25.30;93.70;;;;;;4954625;28;20043;-48
2023/06/26 00:14:58;;;;;;;9.05;7.63;;;25.20;93.80;;;;;;4954680;28;20058;-46
2023/06/26 00:17:23;;;;;;;10.02;7.90;;;25.10;93.90;;;;;;4954877;28;20533;-50
2023/06/26 00:19:50;;;;;;;9.60;7.75;;;25.10;94.00;;;;;;4954984;28;20126;-48
2023/06/26 00:22:16;;;;;;;9.68;7.43;;;25.00;94.10;;;;;;4958078;28;20039;-49
2023/06/26 00:24:41;;;;;;;9.43;7.80;;;25.00;94.20;;;;;;4974193;28;20393;-48
2023/06/26 00:27:07;;;;;;;10.70;8.07;;;25.00;94.30;;;;;;4935861;28;20118;-48
2023/06/26 00:29:33;;;;;;;11.48;7.70;;;24.90;94.30;;;;;;4954773;28;20126;-50
2023/06/26 00:31:59;;;;;;;9.20;7.82;;;24.80;94.50;;;;;;4964440;28;20034;-47
2023/06/26 00:34:24;;;;;;;9.70;7.85;;;24.80;94.50;;;;;;4973735;28;20039;-47
2023/06/26 00:36:50;;;;;;;9.48;7.78;;;24.70;94.60;;;;;;4973889;28;20038;-48
2023/06/26 00:39:16;;;;;;;9.65;8.30;;;24.70;94.70;;;;;;4973646;28;20103;-48
2023/06/26 00:41:41;;;;;;;10.82;7.75;;;24.70;94.70;;;;;;4973680;28;20050;-45
2023/06/26 00:44:07;;;;;;;10.70;9.00;;;24.60;94.70;;;;;;4973474;28;20035;-49
2023/06/26 00:46:34;;;;;;;10.98;8.35;;;24.60;94.80;;;;;;4973146;28;20069;-49
2023/06/26 00:49:01;;;;;;;9.60;8.38;;;24.60;94.90;;;;;;4973599;28;20043;-48
2023/06/26 00:51:29;;;;;;;10.35;9.13;;;24.60;95.00;;;;;;4936736;28;20042;-49
2023/06/26 00:53:56;;;;;;;10.88;9.35;;;24.50;95.00;;;;;;4954557;28;20046;-48
2023/06/26 00:56:22;;;;;;;12.63;9.93;;;24.50;95.10;;;;;;4936593;28;20051;-51
2023/06/26 00:58:48;;;;;;;11.73;9.63;;;24.40;95.10;;;;;;4954277;28;20075;-49
2023/06/26 01:01:17;;;;;;;10.27;9.18;;;24.40;95.20;;;;;;4953971;28;20561;-46
2023/06/26 01:03:51;;;;;;;10.13;9.07;;;24.30;95.30;;;;;;4953868;28;20165;-47
2023/06/26 01:06:19;;;;;;;10.65;9.20;;;24.30;95.30;;;;;;4965142;28;20043;-48
2023/06/26 01:08:46;;;;;;;11.90;9.68;;;24.30;95.40;;;;;;4972959;28;20042;-51
2023/06/26 01:11:13;;;;;;;10.77;9.68;;;24.50;95.50;;;;;;4972836;28;20074;-49
2023/06/26 01:13:40;;;;;;;10.70;9.60;;;24.20;95.50;;;;;;4972691;28;20387;-50
2023/06/26 01:16:06;;;;;;;11.00;9.27;;;24.20;95.50;;;;;;4972694;28;20482;-52
2023/06/26 01:18:33;;;;;;;10.73;9.40;;;24.20;95.60;;;;;;4972690;28;20038;-46
2023/06/26 01:21:01;;;;;;;13.65;9.88;;;24.20;95.70;;;;;;4972648;28;20109;-50
2023/06/26 01:23:58;;;;;;;11.75;9.65;;;24.20;95.80;;;;;;4956884;28;20051;-51
2023/06/26 01:26:27;;;;;;;10.35;9.20;;;24.10;95.70;;;;;;4953269;28;20047;-51
2023/06/26 01:28:53;;;;;;;11.15;9.95;;;24.00;95.80;;;;;;4972012;28;20332;-49
2023/06/26 01:31:20;;;;;;;11.00;9.70;;;24.00;95.90;;;;;;4973062;28;20034;-47
2023/06/26 01:33:47;;;;;;;11.38;9.60;;;24.00;96.00;;;;;;4967574;28;20455;-49
2023/06/26 01:36:13;;;;;;;12.50;9.68;;;24.00;96.10;;;;;;4953536;28;20047;-51
2023/06/26 01:38:39;;;;;;;11.02;9.82;;;23.90;96.20;;;;;;4968180;28;20125;-51
2023/06/26 01:41:06;;;;;;;10.98;9.77;;;23.90;96.40;;;;;;4972677;28;20478;-48
2023/06/26 01:43:45;;;;;;;12.57;10.48;;;23.80;96.50;;;;;;4972286;28;20055;-51
2023/06/26 01:46:23;;;;;;;11.10;9.90;;;23.80;96.50;;;;;;4972112;28;20089;-47
2023/06/26 01:49:18;;;;;;;12.63;10.40;;;23.70;96.50;;;;;;4960592;28;20495;-49
2023/06/26 01:51:52;;;;;;;11.95;10.75;;;23.70;96.70;;;;;;4948778;28;20082;-49
2023/06/26 01:54:23;;;;;;;13.07;10.68;;;23.60;96.80;;;;;;4952905;28;20151;-46
2023/06/26 01:56:52;;;;;;;12.40;11.10;;;23.50;97.00;;;;;;4958557;28;20510;-48
2023/06/26 01:59:20;;;;;;;12.55;11.25;;;23.50;97.20;;;;;;4972585;28;20399;-47
2023/06/26 02:01:46;;;;;;;12.52;11.23;;;23.40;97.30;;;;;;4971962;28;20145;-48
2023/06/26 02:04:12;;;;;;;13.48;10.98;;;23.40;97.50;;;;;;4972323;28;20173;-50
2023/06/26 02:06:38;;;;;;;12.48;10.98;;;23.30;97.60;;;;;;4972225;28;20122;-47
2023/06/26 02:09:03;;;;;;;13.95;11.93;;;23.30;97.70;;;;;;4972336;28;20086;-48
2023/06/26 02:11:29;;;;;;;13.10;11.60;;;23.20;97.80;;;;;;4955219;28;20065;-50
2023/06/26 02:13:55;;;;;;;13.43;12.05;;;23.20;97.90;;;;;;4952593;28;20091;-51
2023/06/26 02:16:20;;;;;;;13.20;11.90;;;23.20;98.00;;;;;;4952716;28;20454;-47
2023/06/26 02:18:46;;;;;;;14.25;11.95;;;23.10;98.20;;;;;;4971256;28;20423;-51
2023/06/26 02:21:13;;;;;;;13.20;11.80;;;23.10;98.30;;;;;;4971844;28;20041;-46
2023/06/26 02:23:39;;;;;;;13.15;11.75;;;23.00;98.40;;;;;;4936010;28;20043;-44
2023/06/26 02:26:05;;;;;;;13.00;11.70;;;23.00;98.60;;;;;;4934917;28;20057;-48
2023/06/26 02:28:31;;;;;;;14.10;12.38;;;23.00;98.70;;;;;;4952455;28;20118;-51
2023/06/26 02:30:56;;;;;;;13.55;12.15;;;23.00;98.90;;;;;;4952751;28;20046;-49
2023/06/26 02:33:22;;;;;;;14.70;11.82;;;22.90;98.90;;;;;;4952206;28;20035;-50
2023/06/26 02:35:50;;;;;;;13.88;12.40;;;22.90;99.00;;;;;;4952547;28;20130;-49
2023/06/26 02:38:15;;;;;;;13.88;12.45;;;22.80;99.10;;;;;;4952364;28;20041;-48
2023/06/26 02:40:41;;;;;;;14.48;12.70;;;22.80;99.20;;;;;;4934937;28;20035;-48
2023/06/26 02:43:07;;;;;;;14.95;13.23;;;22.80;99.40;;;;;;4952320;28;20074;-45
2023/06/26 02:45:32;;;;;;;15.10;13.48;;;22.80;99.40;;;;;;4952015;28;20051;-49
2023/06/26 02:47:58;;;;;;;15.50;12.85;;;22.70;99.50;;;;;;4952246;28;20410;-47
2023/06/26 02:50:24;;;;;;;14.07;12.68;;;22.70;99.70;;;;;;4952098;28;20487;-50
2023/06/26 02:52:52;;;;;;;14.00;12.50;;;22.70;99.80;;;;;;4968647;28;20039;-48
2023/06/26 02:55:21;;;;;;;14.68;13.18;;;22.60;99.90;;;;;;4971542;28;20105;-48
2023/06/26 02:57:46;;;;;;;13.90;12.05;;;22.60;99.90;;;;;;4962779;28;20055;-48
2023/06/26 03:00:13;;;;;;;13.82;12.30;;;22.50;99.90;;;;;;4971286;28;20372;-48
2023/06/26 03:02:38;;;;;;;13.90;12.38;;;22.50;99.90;;;;;;4935850;28;20074;-47
2023/06/26 03:05:05;;;;;;;13.50;11.52;;;22.50;99.90;;;;;;4951860;28;20074;-47
2023/06/26 03:07:30;;;;;;;14.30;12.05;;;22.50;99.90;;;;;;4934871;28;20043;-47
2023/06/26 03:09:56;;;;;;;13.88;12.00;;;22.40;99.90;;;;;;4951896;28;20035;-50
2023/06/26 03:12:22;;;;;;;12.20;11.00;;;22.40;99.90;;;;;;4952298;28;20091;-48
2023/06/26 03:14:48;;;;;;;11.63;10.10;;;22.30;99.90;;;;;;4952013;28;20386;-48
2023/06/26 03:17:13;;;;;;;11.27;9.63;;;22.30;99.90;;;;;;4951796;28;20123;-52
2023/06/26 03:19:39;;;;;;;12.07;8.75;;;22.30;99.90;;;;;;4951772;28;20039;-47
2023/06/26 03:22:05;;;;;;;11.43;8.10;;;22.30;99.90;;;;;;4951893;28;20034;-46
2023/06/26 03:24:30;;;;;;;12.55;8.68;;;22.30;99.90;;;;;;4952330;28;20035;-51
2023/06/26 03:26:56;;;;;;;10.40;7.70;;;22.30;99.90;;;;;;4965820;28;20106;-50
2023/06/26 03:29:22;;;;;;;10.88;7.60;;;22.40;99.90;;;;;;4954415;28;20490;-50
2023/06/26 03:31:47;;;;;;;9.55;6.90;;;22.40;99.90;;;;;;4952044;28;20486;-50
2023/06/26 03:34:13;;;;;;;12.27;6.50;;;22.40;99.90;;;;;;4951560;28;20522;-49
2023/06/26 03:36:39;;;;;;;8.18;6.70;;;22.40;99.90;;;;;;4952015;28;20050;-47
2023/06/26 03:39:04;;;;;;;15.88;7.30;;;22.40;99.90;;;;;;4952011;28;20039;-47
2023/06/26 03:41:30;;;;;;;11.10;6.95;;;22.40;99.90;;;;;;4951533;28;20047;-51
2023/06/26 03:43:56;;;;;;;11.15;7.78;;;22.50;99.90;;;;;;4951587;28;20039;-49
2023/06/26 03:46:22;;;;;;;10.32;8.25;;;22.50;99.90;;;;;;4953767;28;20058;-49
2023/06/26 03:48:48;;;;;;;13.65;8.75;;;22.40;99.90;;;;;;4955369;28;20416;-47
2023/06/26 03:51:14;;;;;;;11.35;8.48;;;22.50;99.90;;;;;;4973539;28;20030;-49
2023/06/26 03:53:40;;;;;;;11.85;8.30;;;22.50;99.90;;;;;;4964588;28;20042;-47
2023/06/26 03:56:06;;;;;;;11.27;8.85;;;22.50;99.90;;;;;;4955402;28;20050;-50
2023/06/26 03:58:31;;;;;;;12.23;9.10;;;22.50;99.90;;;;;;4938002;28;20046;-51
2023/06/26 04:00:57;;;;;;;14.00;9.35;;;22.50;99.90;;;;;;4955327;28;20043;-48
2023/06/26 04:03:23;;;;;;;9.80;7.88;;;22.50;99.90;;;;;;4954896;28;20046;-49
2023/06/26 04:05:49;;;;;;;11.95;7.82;;;22.40;99.90;;;;;;4955108;28;20035;-46
2023/06/26 04:08:15;;;;;;;12.00;6.70;;;22.40;99.90;;;;;;4937701;28;20514;-47
2023/06/26 04:10:40;;;;;;;10.70;6.35;;;22.30;99.90;;;;;;4954912;28;20071;-49
2023/06/26 04:13:06;;;;;;;12.02;6.57;;;22.20;99.90;;;;;;4954752;28;20031;-49
2023/06/26 04:15:32;;;;;;;12.25;7.03;;;22.20;99.90;;;;;;4954536;28;20577;-47
2023/06/26 04:17:57;;;;;;;14.90;6.72;;;22.10;99.90;;;;;;4959085;28;20079;-48
2023/06/26 04:20:23;;;;;;;18.30;7.20;;;22.20;99.90;;;;;;4937400;28;20046;-49
2023/06/26 04:22:49;;;;;;;14.52;6.95;;;22.00;99.90;;;;;;4954308;28;20062;-52
2023/06/26 04:25:15;;;;;;;15.30;6.78;;;22.00;99.90;;;;;;4967110;28;20031;-50
2023/06/26 04:27:41;;;;;;;15.48;8.10;;;21.90;99.90;;;;;;4973593;28;20070;-47
2023/06/26 04:30:07;;;;;;;15.23;6.88;;;21.80;99.90;;;;;;4973729;28;20102;-48
2023/06/26 04:32:33;;;;;;;15.20;7.07;;;21.80;99.90;;;;;;4956741;28;20039;-47
2023/06/26 04:34:59;;;;;;;16.85;7.43;;;21.80;99.90;;;;;;4936439;28;20067;-47
2023/06/26 04:37:25;;;;;;;17.17;7.43;;;21.70;99.90;;;;;;4937324;28;20122;-50
2023/06/26 04:39:51;;;;;;;15.45;7.07;;;21.80;99.90;;;;;;4954462;28;20039;-47
2023/06/26 04:42:16;;;;;;;14.68;7.00;;;21.80;99.90;;;;;;4954204;28;20031;-46
2023/06/26 04:44:42;;;;;;;14.57;6.97;;;21.80;99.90;;;;;;4953769;28;20051;-49
2023/06/26 04:47:09;;;;;;;17.27;7.05;;;21.80;99.90;;;;;;4953975;28;20055;-47
2023/06/26 04:49:34;;;;;;;16.65;6.57;;;21.80;99.90;;;;;;4954140;28;20062;-47
2023/06/26 04:52:00;;;;;;;18.40;6.82;;;21.70;99.90;;;;;;4954227;28;20027;-46
2023/06/26 04:54:30;;;;;;;12.57;5.97;;;21.70;99.90;;;;;;4954235;28;20067;-48
2023/06/26 04:56:56;;;;;;;17.58;6.68;;;21.60;99.90;;;;;;4954078;28;20521;-50
2023/06/26 04:59:22;;;;;;;15.75;6.82;;;21.60;99.90;;;;;;4958503;28;20039;-46
2023/06/26 05:01:48;;;;;;;13.65;6.68;;;21.60;99.90;;;;;;4973324;28;20094;-49
2023/06/26 05:04:15;;;;;;;17.77;6.35;;;21.50;99.90;;;;;;4972944;28;20043;-50
2023/06/26 05:06:41;;;;;;;12.88;6.97;;;21.50;99.90;;;;;;4972867;28;20085;-48
2023/06/26 05:09:06;;;;;;;14.15;6.32;;;21.40;99.90;;;;;;4972690;28;20066;-49
2023/06/26 05:11:32;;;;;;;13.70;6.50;;;21.40;99.90;;;;;;4968006;28;20031;-51
2023/06/26 05:13:58;;;;;;;14.88;6.70;;;21.40;99.90;;;;;;4965973;28;20035;-50
2023/06/26 05:16:24;;;;;;;14.10;6.50;;;21.40;99.90;;;;;;4953036;28;20038;-51
2023/06/26 05:18:49;;;;;;;13.88;6.40;;;21.50;99.90;;;;;;4961717;28;20073;-46
2023/06/26 05:21:16;;;;;;;11.35;6.43;;;21.40;99.90;;;;;;4972834;28;20047;-49
2023/06/26 05:23:44;;;;;;;12.30;6.32;;;21.50;99.90;;;;;;4967378;28;20118;-46
2023/06/26 05:26:10;;;;;;;14.82;5.75;;;21.50;99.90;;;;;;4920228;28;20081;-49
2023/06/26 05:28:37;;;;;;;11.30;5.18;;;21.50;99.90;;;;;;4953496;28;20043;-49
2023/06/26 05:31:04;;;;;;;12.05;5.07;;;21.50;99.90;;;;;;4953474;28;20035;-48
2023/06/26 05:33:30;;;;;;;7.80;4.30;;;21.50;99.90;;;;;;4953018;28;20554;-51
2023/06/26 05:35:59;;;;;;;11.30;4.38;;;21.50;99.90;;;;;;4953502;28;20129;-48
2023/06/26 05:38:25;;;;;;;7.97;4.05;;;21.50;99.90;;;;;;4956422;28;20121;-52
2023/06/26 05:40:51;;;;;;;7.47;4.00;;;21.50;99.90;;;;;;4971840;28;20049;-51
2023/06/26 05:43:20;;;;;;;9.85;3.45;;;21.50;99.90;;;;;;4972653;28;20043;-48
2023/06/26 05:45:48;;;;;;;9.20;3.13;;;21.60;99.90;;;;;;4956713;28;20040;-49
2023/06/26 05:48:14;;;;;;;6.68;2.90;;;21.50;99.90;;;;;;4971532;28;20410;-49
2023/06/26 05:50:41;;;;;;;7.60;3.25;;;21.50;99.90;;;;;;4953439;28;20063;-48
2023/06/26 05:53:08;;;;;;;8.25;3.15;;;21.40;99.90;;;;;;4953049;28;20035;-50
2023/06/26 05:55:34;;;;;;;7.95;2.85;;;21.30;99.90;;;;;;4953331;28;20047;-49
2023/06/26 05:58:01;;;;;;;7.15;2.63;;;21.30;99.90;;;;;;4953114;28;20103;-50
2023/06/26 06:00:27;;;;;;;6.30;2.50;;;21.20;99.90;;;;;;4951915;28;20081;-53
2023/06/26 06:02:53;;;;;;;6.88;2.17;;;21.20;99.90;;;;;;4953020;28;20050;-49
2023/06/26 06:05:23;;;;;;;6.65;2.00;;;21.20;99.90;;;;;;4972233;28;20043;-52
2023/06/26 06:07:49;;;;;;;6.97;2.13;;;21.20;99.90;;;;;;4961115;28;20035;-50
2023/06/26 06:10:15;;;;;;;6.97;2.03;;;21.30;99.90;;;;;;4972080;28;20051;-50
2023/06/26 06:12:40;;;;;;;7.13;2.10;;;21.30;99.90;;;;;;4972190;28;20038;-49
2023/06/26 06:15:07;;;;;;;6.85;1.90;;;21.40;99.90;;;;;;4971622;28;20122;-48
2023/06/26 06:17:32;;;;;;;5.30;1.90;;;21.50;99.90;;;;;;4972001;28;20053;-48
2023/06/26 06:19:58;;;;;;;4.72;1.70;;;21.50;99.90;;;;;;4972206;28;20039;-48
2023/06/26 06:22:24;;;;;;;6.85;2.10;;;21.40;99.90;;;;;;4971900;28;20038;-51
2023/06/26 06:24:50;;;;;;;4.85;2.13;;;21.40;99.90;;;;;;4972254;28;20169;-50
2023/06/26 06:27:16;;;;;;;4.40;1.60;;;21.30;99.90;;;;;;4962267;28;20139;-52
2023/06/26 06:29:42;;;;;;;6.45;1.90;;;21.30;99.90;;;;;;4935896;28;20550;-46
2023/06/26 06:32:08;;;;;;;5.85;1.80;;;21.30;99.90;;;;;;4952711;28;20071;-48
2023/06/26 06:34:33;;;;;;;7.47;2.05;;;21.30;99.90;;;;;;4964192;28;20043;-48
2023/06/26 06:36:59;;;;;;;4.63;2.03;;;21.40;99.90;;;;;;4964705;28;20054;-49
2023/06/26 06:39:25;;;;;;;5.32;2.00;;;21.40;99.90;;;;;;4952836;28;20039;-45
2023/06/26 06:41:51;;;;;;;6.35;2.30;;;21.50;99.90;;;;;;4935427;28;20490;-51
2023/06/26 06:44:16;;;;;;;6.85;2.20;;;21.70;99.90;;;;;;4952160;28;20372;-47
2023/06/26 06:46:42;;;;;;;6.72;2.30;;;21.80;99.90;;;;;;4952459;28;20047;-48
2023/06/26 06:49:09;;;;;;;7.93;1.90;;;21.90;99.90;;;;;;4952781;28;20043;-48
2023/06/26 06:51:34;;;;;;;8.15;2.38;;;21.90;99.90;;;;;;4952615;28;20075;-50
2023/06/26 06:54:00;;;;;;;6.68;2.40;;;22.00;99.90;;;;;;4971399;28;20454;-49
2023/06/26 06:56:26;;;;;;;10.27;2.33;;;21.90;99.90;;;;;;4971682;28;20057;-48
2023/06/26 06:58:52;;;;;;;10.93;2.55;;;21.80;99.90;;;;;;4958866;28;20035;-49
2023/06/26 07:01:17;;;;;;;6.15;2.33;;;21.60;99.90;;;;;;4966349;28;20039;-48
2023/06/26 07:03:43;;;;;;;6.95;2.05;;;21.50;99.90;;;;;;4971545;28;20047;-51
2023/06/26 07:06:09;;;;;;;5.50;1.95;;;21.50;99.90;;;;;;4936192;28;20043;-47
2023/06/26 07:08:35;;;;;;;4.90;1.75;;;21.50;99.90;;;;;;4952296;28;20196;-51
2023/06/26 07:11:01;;;;;;;5.07;1.80;;;21.60;99.90;;;;;;4952574;28;20094;-50
2023/06/26 07:13:27;;;;;;;4.25;1.85;;;21.70;99.90;;;;;;4935096;28;20039;-48
2023/06/26 07:15:52;;;;;;;5.65;1.65;;;21.70;99.90;;;;;;4934367;28;20494;-49
2023/06/26 07:18:18;;;;;;;6.90;1.98;;;21.80;99.90;;;;;;4952161;28;20589;-49
2023/06/26 07:20:44;;;;;;;5.53;1.90;;;21.90;99.90;;;;;;4954614;28;20047;-51
2023/06/26 07:23:09;;;;;;;6.00;1.90;;;21.90;99.90;;;;;;4955809;28;20089;-48
2023/06/26 07:25:36;;;;;;;6.78;2.20;;;21.90;99.90;;;;;;4961609;28;20035;-49
2023/06/26 07:28:02;;;;;;;6.95;1.75;;;21.90;99.90;;;;;;4939268;28;20098;-49
2023/06/26 07:30:27;;;;;;;6.30;1.90;;;22.00;99.90;;;;;;4958618;28;20039;-48
2023/06/26 07:32:53;;;;;;;6.57;1.92;;;22.10;99.90;;;;;;4972899;28;20450;-49
2023/06/26 07:35:19;;;;;;;4.75;1.77;;;22.20;99.90;;;;;;4938579;28;20122;-45
2023/06/26 07:37:44;;;;;;;4.05;1.90;;;22.30;99.90;;;;;;4955867;28;20039;-48
2023/06/26 07:40:10;;;;;;;5.55;1.98;;;22.40;99.90;;;;;;4967960;28;20051;-50
2023/06/26 07:42:36;;;;;;;4.28;1.85;;;22.40;99.90;;;;;;4964957;28;20039;-51
2023/06/26 07:45:09;;;;;;;9.90;2.03;;;22.50;99.90;;;;;;4954985;28;20054;-50
2023/06/26 07:47:36;;;;;;;6.47;2.30;;;22.40;99.90;;;;;;4954996;28;20051;-49
2023/06/26 07:50:01;;;;;;;8.98;2.67;;;22.30;99.90;;;;;;4954775;28;20368;-47
2023/06/26 07:52:27;;;;;;;10.93;2.20;;;22.20;99.90;;;;;;4955233;28;20042;-48
2023/06/26 07:54:53;;;;;;;7.05;2.05;;;22.10;99.90;;;;;;4971122;28;20049;-53
2023/06/26 07:57:18;;;;;;;5.47;1.92;;;22.00;99.90;;;;;;4974844;28;20084;-51
2023/06/26 07:59:44;;;;;;;5.43;1.80;;;22.00;99.90;;;;;;4959572;28;20047;-48
2023/06/26 08:02:10;;;;;;;5.68;2.08;;;22.10;99.90;;;;;;4964800;28;20140;-47
2023/06/26 08:04:35;;;;;;;5.07;1.85;;;22.10;99.90;;;;;;4974437;28;20129;-50
2023/06/26 08:07:03;;;;;;;6.63;2.33;;;22.10;99.90;;;;;;4974568;28;20042;-50
2023/06/26 08:09:30;;;;;;;5.85;1.92;;;22.20;99.90;;;;;;4962718;28;20040;-51
2023/06/26 08:11:56;;;;;;;5.35;2.30;;;22.40;99.90;;;;;;4954871;28;20043;-48
2023/06/26 08:14:23;;;;;;;5.45;2.10;;;22.50;99.90;;;;;;4973880;28;20038;-46
2023/06/26 08:16:49;;;;;;;7.10;1.83;;;22.60;99.90;;;;;;4974322;28;20055;-49
2023/06/26 08:19:16;;;;;;;7.45;1.98;;;22.60;99.90;;;;;;4974087;28;20031;-50
2023/06/26 08:21:43;;;;;;;7.68;2.00;;;22.60;99.90;;;;;;4974250;28;20147;-48
2023/06/26 08:24:09;;;;;;;6.97;2.10;;;22.60;99.90;;;;;;4974333;28;20130;-50
2023/06/26 08:26:35;;;;;;;8.15;2.08;;;22.60;99.90;;;;;;4973939;28;20390;-49
2023/06/26 08:29:07;;;;;;;5.82;1.95;;;22.50;99.90;;;;;;4972823;28;20066;-50
2023/06/26 08:31:37;;;;;;;4.45;1.92;;;22.40;99.90;;;;;;4954447;28;20111;-51
2023/06/26 08:34:03;;;;;;;11.35;2.13;;;22.40;99.90;;;;;;4954948;28;20047;-49
2023/06/26 08:36:29;;;;;;;7.38;2.22;;;22.40;99.90;;;;;;4954756;28;20050;-48
2023/06/26 08:38:55;;;;;;;5.03;1.98;;;22.50;99.90;;;;;;4954712;28;20039;-48
2023/06/26 08:41:21;;;;;;;5.63;2.13;;;22.40;99.90;;;;;;4954714;28;20043;-49
2023/06/26 08:43:47;;;;;;;8.25;2.40;;;22.40;99.90;;;;;;4954670;28;20039;-51
2023/06/26 08:46:14;;;;;;;5.47;2.20;;;22.30;99.90;;;;;;4954367;28;20102;-52
2023/06/26 08:48:45;;;;;;;5.38;2.17;;;22.30;99.90;;;;;;4953811;28;20122;-50
2023/06/26 08:51:15;;;;;;;7.30;2.60;;;22.30;99.90;;;;;;4954682;28;20383;-49
2023/06/26 08:53:51;;;;;;;7.00;2.70;;;22.30;99.90;;;;;;4956392;28;20035;-48
2023/06/26 08:56:21;;;;;;;7.55;2.72;;;22.50;99.90;;;;;;4973797;28;20049;-53
2023/06/26 08:58:47;;;;;;;5.68;2.38;;;22.60;99.90;;;;;;4973611;28;20466;-49
2023/06/26 09:01:13;;;;;;;7.10;2.63;;;22.70;99.90;;;;;;4921396;28;20097;-48
2023/06/26 09:03:41;;;;;;;5.78;2.63;;;22.70;99.90;;;;;;4953759;28;20043;-50
2023/06/26 09:06:07;;;;;;;7.93;2.65;;;22.70;99.90;;;;;;4972542;28;20042;-46
2023/06/26 09:08:32;;;;;;;8.02;2.70;;;22.60;99.90;;;;;;4973532;28;20082;-46
2023/06/26 09:10:58;;;;;;;5.40;2.42;;;22.50;99.90;;;;;;4973294;28;20485;-48
2023/06/26 09:13:24;;;;;;;7.95;2.75;;;22.60;99.90;;;;;;4970681;28;20553;-52
2023/06/26 09:15:54;;;;;;;6.80;2.38;;;22.70;99.90;;;;;;4953557;28;20035;-49
2023/06/26 09:18:21;;;;;;;6.53;2.50;;;22.80;99.90;;;;;;4966010;28;20058;-47
2023/06/26 09:20:47;;;;;;;6.07;2.58;;;22.80;99.90;;;;;;4973188;28;20042;-50
2023/06/26 09:23:13;;;;;;;5.65;2.30;;;22.90;99.90;;;;;;4973144;28;20046;-49
2023/06/26 09:25:40;;;;;;;7.05;2.33;;;22.90;99.90;;;;;;4973127;28;20461;-49
2023/06/26 09:28:06;;;;;;;7.78;2.50;;;22.90;99.90;;;;;;4972926;28;20090;-49
2023/06/26 09:30:32;;;;;;;6.97;1.98;;;22.70;99.90;;;;;;4973147;28;20035;-48
2023/06/26 09:33:16;;;;;;;7.95;2.35;;;22.60;99.90;;;;;;4971481;28;20058;-46
2023/06/26 09:35:43;;;;;;;7.63;2.50;;;22.40;99.90;;;;;;4962208;28;20122;-50
2023/06/26 09:38:09;;;;;;;12.48;2.90;;;22.30;99.90;;;;;;4961633;28;20130;-49
2023/06/26 09:40:35;;;;;;;5.90;2.25;;;22.20;99.90;;;;;;4953317;28;20538;-51
2023/06/26 09:43:09;;;;;;;7.43;2.70;;;22.40;99.90;;;;;;4935426;28;20085;-48
2023/06/26 09:45:39;;;;;;;8.40;2.92;;;22.70;99.90;;;;;;4953051;28;20474;-51
2023/06/26 09:48:05;;;;;;;9.77;2.60;;;22.90;99.90;;;;;;4953163;28;20506;-48
2023/06/26 09:50:37;;;;;;;7.55;2.70;;;22.90;99.90;;;;;;4953592;28;20043;-52
2023/06/26 09:53:13;;;;;;;10.32;3.00;;;22.80;99.90;;;;;;4935846;28;20069;-46
2023/06/26 09:55:43;;;;;;;8.60;2.42;;;22.70;99.90;;;;;;4952351;28;20047;-46
2023/06/26 09:58:14;;;;;;;8.05;2.50;;;22.90;99.90;;;;;;4968659;28;20057;-51
2023/06/26 10:00:42;;;;;;;8.07;2.75;;;23.20;99.90;;;;;;4962502;28;20483;-49
2023/06/26 10:03:08;;;;;;;7.38;2.10;;;23.50;99.90;;;;;;4952381;28;20039;-49
2023/06/26 10:05:34;;;;;;;6.13;2.13;;;23.70;99.70;;;;;;4951798;28;20114;-50
2023/06/26 10:08:00;;;;;;;6.38;1.98;;;23.90;98.90;;;;;;4971153;28;20047;-48
2023/06/26 10:10:27;;;;;;;15.27;2.60;;;24.00;98.40;;;;;;4971721;28;20046;-49
2023/06/26 10:12:59;;;;;;;12.10;2.40;;;23.90;97.60;;;;;;4971780;28;20073;-47
2023/06/26 10:15:26;;;;;;;6.50;2.00;;;23.80;98.10;;;;;;4961590;28;20058;-48
2023/06/26 10:17:55;;;;;;;6.78;2.10;;;23.70;98.10;;;;;;4952827;28;20051;-46
2023/06/26 10:20:22;;;;;;;5.47;1.90;;;23.60;98.70;;;;;;4971487;28;20038;-50
2023/06/26 10:22:48;;;;;;;10.40;2.60;;;23.60;98.70;;;;;;4972174;28;20072;-47
2023/06/26 10:25:18;;;;;;;7.15;2.42;;;23.60;98.60;;;;;;4935655;28;20035;-46
2023/06/26 10:27:48;;;;;;;5.47;1.90;;;23.60;98.70;;;;;;4961014;28;20077;-49
2023/06/26 10:30:19;;;;;;;7.35;2.10;;;23.70;98.30;;;;;;4972034;28;20043;-50
2023/06/26 10:32:45;;;;;;;5.95;1.92;;;23.70;98.30;;;;;;4972445;28;20045;-49
2023/06/26 10:35:11;;;;;;;9.10;2.22;;;23.90;98.40;;;;;;4972070;28;20049;-45
2023/06/26 10:37:50;;;;;;;8.85;2.20;;;23.90;98.20;;;;;;4971550;28;20047;-47
2023/06/26 10:40:25;;;;;;;8.80;2.13;;;23.90;97.60;;;;;;4972174;28;20053;-49
2023/06/26 10:43:04;;;;;;;9.02;2.08;;;23.60;98.10;;;;;;4971867;28;20047;-48
2023/06/26 10:45:30;;;;;;;8.20;2.40;;;23.50;98.60;;;;;;4960971;28;20368;-48
2023/06/26 10:47:57;;;;;;;8.48;2.13;;;23.30;98.50;;;;;;4955101;28;20178;-46
2023/06/26 10:50:26;;;;;;;8.60;2.00;;;23.10;98.60;;;;;;4971813;28;20125;-48
2023/06/26 10:53:20;;;;;;;7.47;2.20;;;23.30;99.20;;;;;;4970674;28;20781;-50
2023/06/26 10:55:59;;;;;;;18.08;2.38;;;23.70;98.90;;;;;;4974943;28;20047;-49
2023/06/26 10:58:40;;;;;;;8.75;1.88;;;24.00;98.70;;;;;;4975054;28;20039;-50
2023/06/26 11:01:12;;;;;;;7.20;2.03;;;24.20;97.40;;;;;;4974442;28;20031;-50
2023/06/26 11:03:39;;;;;;;6.65;2.13;;;24.20;96.70;;;;;;4974996;28;20545;-50
2023/06/26 11:06:12;;;;;;;10.57;2.20;;;24.00;97.10;;;;;;4975648;28;20525;-50
2023/06/26 11:08:53;;;;;;;9.52;1.92;;;24.10;97.10;;;;;;4975333;28;20455;-49
2023/06/26 11:11:20;;;;;;;12.43;2.05;;;24.30;96.80;;;;;;4975553;28;20074;-46
2023/06/26 11:13:47;;;;;;;8.52;2.03;;;24.40;96.60;;;;;;4975249;28;20180;-48
2023/06/26 11:16:16;;;;;;;5.93;1.63;;;24.40;96.30;;;;;;4974018;28;20061;-47
2023/06/26 11:18:44;;;;;;;7.32;1.70;;;24.40;96.80;;;;;;4975270;28;20039;-50
2023/06/26 11:21:14;;;;;;;6.85;1.80;;;24.50;96.70;;;;;;4975335;28;20047;-49
2023/06/26 11:23:40;;;;;;;7.82;1.58;;;24.60;96.30;;;;;;4975465;28;20047;-47
2023/06/26 11:26:23;;;;;;;6.90;1.50;;;24.40;96.40;;;;;;4958709;28;20039;-51
2023/06/26 11:28:55;;;;;;;6.95;1.73;;;24.20;96.40;;;;;;4960112;28;20058;-50
2023/06/26 11:31:40;;;;;;;8.05;1.70;;;23.90;96.80;;;;;;4974673;28;20038;-48
2023/06/26 11:34:12;;;;;;;6.32;1.40;;;23.50;96.40;;;;;;4960399;28;20043;-49
2023/06/26 11:36:38;;;;;;;6.65;1.33;;;23.50;96.50;;;;;;4966681;28;20831;-50
2023/06/26 11:39:07;;;;;;;8.35;1.10;;;23.70;96.30;;;;;;4975126;28;20489;-49
2023/06/26 11:41:34;;;;;;;5.88;1.25;;;24.00;96.20;;;;;;4962736;28;20035;-48
2023/06/26 11:44:04;;;;;;;7.90;1.50;;;24.30;96.70;;;;;;4955870;28;20039;-48
2023/06/26 11:46:31;;;;;;;6.50;1.60;;;24.40;96.40;;;;;;4972095;28;20049;-52
2023/06/26 11:48:57;;;;;;;7.97;1.77;;;24.60;96.50;;;;;;4974518;28;20055;-49
2023/06/26 11:51:23;;;;;;;6.63;1.23;;;24.50;95.90;;;;;;4974528;28;20045;-49
2023/06/26 11:53:49;;;;;;;10.20;1.70;;;24.40;95.40;;;;;;4938406;28;20043;-49
2023/06/26 11:56:17;;;;;;;6.15;1.33;;;24.40;95.00;;;;;;4963797;28;20046;-50
2023/06/26 11:59:02;;;;;;;7.78;1.45;;;24.40;94.90;;;;;;4962891;28;20137;-52
2023/06/26 12:01:44;;;;;;;6.80;1.60;;;24.50;95.60;;;;;;4939091;28;20546;-49
2023/06/26 12:04:17;;;;;;;6.88;1.75;;;24.50;95.40;;;;;;4954327;28;20047;-51
2023/06/26 12:06:47;;;;;;;4.88;1.33;;;24.40;94.80;;;;;;4954506;28;20372;-50
2023/06/26 12:09:13;;;;;;;8.77;1.50;;;24.20;95.00;;;;;;4955471;28;20043;-52
2023/06/26 12:11:42;;;;;;;6.43;1.30;;;24.10;95.00;;;;;;4955512;28;20032;-48
2023/06/26 12:14:08;;;;;;;9.48;1.48;;;24.20;95.20;;;;;;4955351;28;20035;-48
2023/06/26 12:16:35;;;;;;;7.15;1.30;;;24.30;94.90;;;;;;4954909;28;20082;-49
2023/06/26 12:19:02;;;;;;;7.10;1.40;;;24.40;94.80;;;;;;4955211;28;20051;-49
2023/06/26 12:21:39;;;;;;;5.63;1.10;;;24.40;94.70;;;;;;4955093;28;20356;-50
2023/06/26 12:24:07;;;;;;;8.10;1.60;;;24.40;94.90;;;;;;4954845;28;20082;-51
2023/06/26 12:26:38;;;;;;;7.90;1.38;;;24.30;95.30;;;;;;4954875;28;20058;-52
2023/06/26 12:29:17;;;;;;;7.03;1.70;;;24.50;95.80;;;;;;4955048;28;20383;-51
2023/06/26 12:31:50;;;;;;;5.22;1.33;;;24.80;95.40;;;;;;4954945;28;20082;-49
2023/06/26 12:34:18;;;;;;;;;;;24.80;95.60;;;;;;4938033;28;20073;-51
2023/06/26 12:36:48;;;;;;;7.05;1.48;;;24.80;95.40;;;;;;4954489;28;19929;-53
2023/06/26 12:39:17;;;;;;;10.48;1.50;;;24.80;95.10;;;;;;4937350;28;20110;-49
2023/06/26 12:41:53;;;;;;;7.55;1.58;;;24.90;94.80;;;;;;4954962;28;20070;-47